Time;durP1;ratioP1;P1;durP2;ratioP2;P2;SDS_P1;SDS_P2;PMS_P1;PMS_P2;Temp;Humidity;BMP_temperature;BMP_pressure;BME280_temperature;BME280_humidity;BME280_pressure;Samples;Min_cycle;Max_cycle;Signal;HPM_P1;HPM_P2
2021/07/20 00:00:28;;;;;;;3.57;3.03;;;18.30;99.90;;;;;;5068236;28;20211;-73
2021/07/20 00:02:56;;;;;;;3.50;2.63;;;18.30;99.90;;;;;;5070369;28;20861;-72
2021/07/20 00:05:24;;;;;;;7.07;2.90;;;18.30;99.90;;;;;;5071941;28;20249;-74
2021/07/20 00:07:51;;;;;;;4.80;3.00;;;18.30;99.90;;;;;;5071678;28;20735;-74
2021/07/20 00:10:23;;;;;;;5.07;2.80;;;18.30;99.90;;;;;;5071521;28;20236;-74
2021/07/20 00:12:50;;;;;;;4.27;3.10;;;18.30;99.90;;;;;;5071826;28;20192;-74
2021/07/20 00:15:17;;;;;;;3.10;2.80;;;18.30;99.90;;;;;;5071871;28;20211;-74
2021/07/20 00:17:48;;;;;;;3.33;3.03;;;18.30;99.90;;;;;;5071452;28;20620;-74
2021/07/20 00:20:18;;;;;;;2.83;2.60;;;18.30;99.90;;;;;;5071845;28;20202;-74
2021/07/20 00:22:45;;;;;;;3.30;3.00;;;18.30;99.90;;;;;;5071311;28;20235;-74
2021/07/20 00:25:13;;;;;;;7.70;2.87;;;18.30;99.90;;;;;;5071612;28;20265;-74
2021/07/20 00:27:41;;;;;;;3.47;2.80;;;18.30;99.90;;;;;;5071694;28;20610;-74
2021/07/20 00:30:09;;;;;;;6.00;3.17;;;18.30;99.90;;;;;;5071676;28;20246;-73
2021/07/20 00:32:36;;;;;;;3.70;3.07;;;18.30;99.90;;;;;;5071502;28;20207;-73
2021/07/20 00:35:04;;;;;;;3.73;3.17;;;18.30;99.90;;;;;;5071487;28;20239;-74
2021/07/20 00:37:31;;;;;;;3.90;3.50;;;18.30;99.90;;;;;;5071478;28;20199;-73
2021/07/20 00:39:57;;;;;;;4.30;3.10;;;18.30;99.90;;;;;;5071402;28;20207;-73
2021/07/20 00:42:24;;;;;;;5.13;3.30;;;18.30;99.90;;;;;;5071305;28;20263;-73
2021/07/20 00:44:52;;;;;;;3.20;2.90;;;18.30;99.90;;;;;;5071231;28;20488;-74
2021/07/20 00:47:19;;;;;;;3.60;3.23;;;18.20;99.90;;;;;;5071206;28;20281;-73
2021/07/20 00:49:47;;;;;;;7.93;3.60;;;18.10;99.90;;;;;;5070963;28;20229;-74
2021/07/20 00:52:14;;;;;;;3.80;3.50;;;18.00;99.90;;;;;;5071172;28;20212;-73
2021/07/20 00:54:40;;;;;;;4.20;3.10;;;18.00;99.90;;;;;;5070636;28;20704;-73
2021/07/20 00:57:08;;;;;;;3.20;2.90;;;18.10;99.90;;;;;;5071074;28;20235;-73
2021/07/20 00:59:37;;;;;;;3.00;2.73;;;18.10;99.90;;;;;;5070822;28;20657;-73
2021/07/20 01:02:06;;;;;;;3.30;3.00;;;18.10;99.90;;;;;;5070596;28;20789;-73
2021/07/20 01:04:33;;;;;;;3.13;2.87;;;18.20;99.90;;;;;;5070679;28;20727;-73
2021/07/20 01:07:01;;;;;;;3.27;2.97;;;18.20;99.90;;;;;;5070706;28;20294;-73
2021/07/20 01:09:28;;;;;;;7.70;3.50;;;18.20;99.90;;;;;;5070513;28;20236;-74
2021/07/20 01:11:56;;;;;;;3.23;3.00;;;18.20;99.90;;;;;;5070471;28;20666;-74
2021/07/20 01:14:24;;;;;;;5.00;3.23;;;18.20;99.90;;;;;;5069622;28;20211;-74
2021/07/20 01:16:51;;;;;;;5.00;3.13;;;18.20;99.90;;;;;;5070382;28;20231;-73
2021/07/20 01:19:19;;;;;;;4.70;3.20;;;18.20;99.90;;;;;;5070762;28;20286;-71
2021/07/20 01:21:47;;;;;;;3.50;3.20;;;18.20;99.90;;;;;;5070172;28;20281;-73
2021/07/20 01:24:17;;;;;;;3.60;3.13;;;18.20;99.90;;;;;;5070151;28;20775;-73
2021/07/20 01:26:44;;;;;;;3.97;2.83;;;18.20;99.90;;;;;;5070221;28;20808;-73
2021/07/20 01:29:12;;;;;;;4.23;2.90;;;18.20;99.90;;;;;;5070268;28;21019;-73
2021/07/20 01:31:42;;;;;;;3.93;3.00;;;18.20;99.90;;;;;;5070485;28;20249;-72
2021/07/20 01:34:12;;;;;;;4.43;3.17;;;18.20;99.90;;;;;;5070444;28;20247;-72
2021/07/20 01:36:39;;;;;;;4.00;3.20;;;18.20;99.90;;;;;;5070207;28;20238;-72
2021/07/20 01:39:09;;;;;;;3.87;2.67;;;18.20;99.90;;;;;;5070416;28;20238;-73
2021/07/20 01:41:39;;;;;;;4.43;3.17;;;18.20;99.90;;;;;;5070285;28;20204;-73
2021/07/20 01:44:08;;;;;;;2.97;2.73;;;18.20;99.90;;;;;;5070105;28;20235;-73
2021/07/20 01:46:36;;;;;;;4.03;2.93;;;18.20;99.90;;;;;;5070172;28;20284;-73
2021/07/20 01:49:06;;;;;;;3.17;2.97;;;18.20;99.90;;;;;;5070140;28;20203;-73
2021/07/20 01:51:34;;;;;;;3.03;2.83;;;18.20;99.90;;;;;;5070092;28;20215;-74
2021/07/20 01:54:01;;;;;;;2.87;2.67;;;18.20;99.90;;;;;;5069707;28;20238;-73
2021/07/20 01:56:28;;;;;;;4.20;3.20;;;18.20;99.90;;;;;;5069983;28;20203;-73
2021/07/20 01:58:56;;;;;;;3.73;3.30;;;18.20;99.90;;;;;;5069686;28;20211;-73
2021/07/20 02:01:27;;;;;;;4.57;3.20;;;18.20;99.90;;;;;;5069972;28;20264;-73
2021/07/20 02:09:38;;;;;;;3.57;3.27;;;18.20;99.90;;;;;;5069218;28;20274;-73
2021/07/20 02:12:14;;;;;;;6.60;3.10;;;18.20;99.90;;;;;;5069702;28;20207;-74
2021/07/20 02:14:46;;;;;;;3.30;3.03;;;17.80;99.90;;;;;;5069587;28;20227;-74
2021/07/20 02:17:14;;;;;;;6.13;3.43;;;17.90;99.90;;;;;;5069485;28;20199;-74
2021/07/20 02:19:45;;;;;;;4.83;3.43;;;18.00;99.90;;;;;;5069396;28;20978;-74
2021/07/20 02:22:16;;;;;;;4.97;3.03;;;17.90;99.90;;;;;;5069486;28;20219;-74
2021/07/20 02:24:43;;;;;;;3.47;2.90;;;17.90;99.90;;;;;;5068779;28;20818;-74
2021/07/20 02:27:11;;;;;;;4.23;3.40;;;17.80;99.90;;;;;;5069344;28;20229;-74
2021/07/20 02:29:39;;;;;;;5.00;3.50;;;17.70;99.90;;;;;;5069283;28;20268;-73
2021/07/20 02:32:09;;;;;;;4.17;3.73;;;17.70;99.90;;;;;;5069197;28;20234;-72
2021/07/20 02:34:38;;;;;;;3.30;3.00;;;17.80;99.90;;;;;;5069240;28;20251;-72
2021/07/20 02:37:06;;;;;;;4.97;3.20;;;17.90;99.90;;;;;;5066453;28;20883;-73
2021/07/20 02:39:34;;;;;;;3.80;3.50;;;17.90;99.90;;;;;;5068757;28;20207;-71
2021/07/20 02:42:02;;;;;;;6.40;3.40;;;17.80;99.90;;;;;;5068467;28;20622;-70
2021/07/20 02:44:30;;;;;;;3.93;3.00;;;17.70;99.90;;;;;;5068623;28;20227;-71
2021/07/20 02:46:58;;;;;;;3.57;3.23;;;17.70;99.90;;;;;;5063468;28;20269;-71
2021/07/20 02:49:27;;;;;;;4.40;3.33;;;17.70;99.90;;;;;;5066628;28;20707;-70
2021/07/20 02:51:55;;;;;;;3.80;2.97;;;17.70;99.90;;;;;;5066135;28;20666;-70
2021/07/20 02:54:25;;;;;;;4.00;3.23;;;17.80;99.90;;;;;;5066674;28;20246;-71
2021/07/20 02:56:53;;;;;;;3.60;3.10;;;17.80;99.90;;;;;;5066498;28;20235;-71
2021/07/20 02:59:23;;;;;;;3.40;3.10;;;17.90;99.90;;;;;;5066517;28;20211;-73
2021/07/20 03:01:52;;;;;;;3.40;3.10;;;17.70;99.90;;;;;;5066919;28;20212;-73
2021/07/20 03:04:19;;;;;;;3.97;3.23;;;17.50;99.90;;;;;;5066878;28;20227;-70
2021/07/20 03:06:51;;;;;;;3.63;3.27;;;17.50;99.90;;;;;;5066699;28;20246;-70
2021/07/20 03:09:19;;;;;;;3.43;2.90;;;17.60;99.90;;;;;;5066212;28;20283;-71
2021/07/20 03:11:49;;;;;;;4.03;3.60;;;17.60;99.90;;;;;;5065821;28;20207;-71
2021/07/20 03:14:22;;;;;;;4.00;3.60;;;17.60;99.90;;;;;;5065648;28;20203;-71
2021/07/20 03:16:51;;;;;;;3.90;3.47;;;17.30;99.90;;;;;;5045989;28;20196;-71
2021/07/20 03:19:22;;;;;;;4.30;3.30;;;17.20;99.90;;;;;;5046039;28;20239;-71
2021/07/20 03:21:50;;;;;;;3.90;3.53;;;17.00;99.90;;;;;;5045680;28;21124;-70
2021/07/20 03:24:18;;;;;;;3.77;3.30;;;16.90;99.90;;;;;;5061971;28;20318;-71
2021/07/20 03:26:45;;;;;;;4.03;3.33;;;16.80;99.90;;;;;;5066194;28;20276;-71
2021/07/20 03:29:13;;;;;;;3.30;3.00;;;16.80;99.90;;;;;;5048828;28;20357;-71
2021/07/20 03:31:41;;;;;;;4.53;3.83;;;17.00;99.90;;;;;;5066877;28;20618;-71
2021/07/20 03:34:08;;;;;;;5.07;3.30;;;16.90;99.90;;;;;;5068078;28;20579;-71
2021/07/20 03:36:36;;;;;;;4.17;3.40;;;16.90;99.90;;;;;;5067377;28;20727;-71
2021/07/20 03:39:05;;;;;;;4.80;3.20;;;16.90;99.90;;;;;;5068259;28;20276;-71
2021/07/20 03:41:34;;;;;;;3.80;3.00;;;17.00;99.90;;;;;;5068192;28;20638;-71
2021/07/20 03:44:01;;;;;;;3.87;3.40;;;17.10;99.90;;;;;;5067843;28;20227;-71
2021/07/20 03:46:28;;;;;;;5.40;3.33;;;17.20;99.90;;;;;;5067785;28;20701;-71
2021/07/20 03:48:55;;;;;;;3.97;3.57;;;17.20;99.90;;;;;;5068144;28;20261;-71
2021/07/20 03:51:23;;;;;;;6.07;3.47;;;17.30;99.90;;;;;;5068291;28;20238;-71
2021/07/20 03:53:51;;;;;;;4.27;3.70;;;17.40;99.90;;;;;;5068073;28;20264;-71
2021/07/20 03:56:19;;;;;;;4.37;3.57;;;17.40;99.90;;;;;;5067934;28;20235;-71
2021/07/20 03:58:48;;;;;;;3.30;3.10;;;17.40;99.90;;;;;;5068187;28;20211;-71
2021/07/20 04:01:15;;;;;;;3.70;3.37;;;17.50;99.90;;;;;;5067608;28;20670;-71
2021/07/20 04:03:44;;;;;;;4.23;3.43;;;17.50;99.90;;;;;;5067712;28;20651;-71
2021/07/20 04:06:14;;;;;;;5.80;3.10;;;17.50;99.90;;;;;;5068097;28;20222;-71
2021/07/20 04:08:42;;;;;;;3.67;3.23;;;17.50;99.90;;;;;;5067675;28;20651;-71
2021/07/20 04:11:09;;;;;;;3.17;2.87;;;17.60;99.90;;;;;;5068195;28;20223;-71
2021/07/20 04:13:37;;;;;;;5.37;3.70;;;17.60;99.90;;;;;;5068061;28;20211;-71
2021/07/20 04:16:07;;;;;;;3.10;2.80;;;17.70;99.90;;;;;;5067730;28;20265;-71
2021/07/20 04:18:35;;;;;;;3.27;3.03;;;17.70;99.90;;;;;;5068013;28;20254;-71
2021/07/20 04:21:03;;;;;;;5.00;3.30;;;17.70;99.90;;;;;;5067778;28;20204;-71
2021/07/20 04:23:30;;;;;;;6.57;3.50;;;17.70;99.90;;;;;;5067609;28;20314;-71
2021/07/20 04:25:58;;;;;;;5.00;3.27;;;17.70;99.90;;;;;;5067751;28;20239;-71
2021/07/20 04:28:26;;;;;;;3.40;3.20;;;17.70;99.90;;;;;;5067998;28;20223;-71
2021/07/20 04:30:55;;;;;;;6.23;3.37;;;17.60;99.90;;;;;;5067588;28;20269;-71
2021/07/20 04:33:25;;;;;;;3.70;3.37;;;17.60;99.90;;;;;;5067777;28;20231;-71
2021/07/20 04:35:52;;;;;;;3.60;3.33;;;17.60;99.90;;;;;;5067697;28;20222;-71
2021/07/20 04:38:20;;;;;;;3.50;3.07;;;17.70;99.90;;;;;;5067784;28;20253;-71
2021/07/20 04:40:47;;;;;;;4.10;3.17;;;17.70;99.90;;;;;;5067716;28;20356;-71
2021/07/20 04:43:14;;;;;;;3.50;3.13;;;17.60;99.90;;;;;;5067679;28;20207;-71
2021/07/20 04:45:41;;;;;;;4.37;3.57;;;17.60;99.90;;;;;;5067729;28;20207;-71
2021/07/20 04:48:12;;;;;;;4.13;3.30;;;17.50;99.90;;;;;;5067490;28;20649;-71
2021/07/20 04:50:39;;;;;;;6.73;3.97;;;17.50;99.90;;;;;;5071174;28;20276;-71
2021/07/20 04:53:06;;;;;;;7.57;3.90;;;17.30;99.90;;;;;;5070874;28;20376;-71
2021/07/20 04:55:34;;;;;;;4.43;3.40;;;17.20;99.90;;;;;;5071176;28;20215;-71
2021/07/20 04:58:02;;;;;;;4.27;3.20;;;17.20;99.90;;;;;;5070675;28;20697;-71
2021/07/20 05:00:29;;;;;;;5.20;3.37;;;17.10;99.90;;;;;;5071063;28;20203;-72
2021/07/20 05:03:00;;;;;;;5.53;3.37;;;17.20;99.90;;;;;;5070850;28;20240;-72
2021/07/20 05:05:30;;;;;;;3.80;3.00;;;17.10;99.90;;;;;;5071190;28;20255;-71
2021/07/20 05:07:59;;;;;;;4.70;3.10;;;17.00;99.90;;;;;;5070753;28;20195;-72
2021/07/20 05:10:26;;;;;;;3.87;3.57;;;17.10;99.90;;;;;;5070561;28;20289;-71
2021/07/20 05:12:53;;;;;;;5.30;3.50;;;17.10;99.90;;;;;;5070554;28;20242;-72
2021/07/20 05:15:21;;;;;;;4.30;3.50;;;17.20;99.90;;;;;;5070569;28;20680;-71
2021/07/20 05:17:48;;;;;;;4.10;3.70;;;17.20;99.90;;;;;;5070535;28;20575;-72
2021/07/20 05:20:17;;;;;;;3.50;3.20;;;17.30;99.90;;;;;;5070647;28;20269;-71
2021/07/20 05:22:47;;;;;;;7.30;3.27;;;17.20;99.90;;;;;;5070476;28;20302;-71
2021/07/20 05:25:14;;;;;;;3.37;3.07;;;17.30;99.90;;;;;;5070617;28;20250;-72
2021/07/20 05:27:43;;;;;;;3.37;3.10;;;17.20;99.90;;;;;;5069280;28;20276;-72
2021/07/20 05:30:12;;;;;;;5.80;3.60;;;17.30;99.90;;;;;;5070559;28;20253;-72
2021/07/20 05:32:41;;;;;;;4.30;3.43;;;17.30;99.90;;;;;;5070168;28;20723;-72
2021/07/20 05:35:10;;;;;;;6.70;3.67;;;17.20;99.90;;;;;;5070605;28;20250;-72
2021/07/20 05:37:37;;;;;;;4.33;3.50;;;17.10;99.90;;;;;;5070300;28;20227;-72
2021/07/20 05:40:08;;;;;;;3.43;3.23;;;17.10;99.90;;;;;;5070338;28;20203;-71
2021/07/20 05:42:35;;;;;;;3.83;3.10;;;17.10;99.90;;;;;;5070456;28;20219;-72
2021/07/20 05:45:02;;;;;;;6.00;3.30;;;17.20;99.90;;;;;;5069862;28;20774;-72
2021/07/20 05:47:31;;;;;;;4.63;3.43;;;17.20;99.90;;;;;;5070132;28;20296;-72
2021/07/20 05:49:57;;;;;;;4.67;3.27;;;17.30;99.90;;;;;;5069732;28;20297;-72
2021/07/20 05:52:25;;;;;;;5.53;3.60;;;17.40;99.90;;;;;;5069915;28;20203;-72
2021/07/20 05:54:53;;;;;;;6.33;3.70;;;17.40;99.90;;;;;;5070006;28;20243;-71
2021/07/20 05:57:25;;;;;;;4.97;3.23;;;17.50;99.90;;;;;;5069845;28;20247;-71
2021/07/20 05:59:53;;;;;;;5.17;3.30;;;17.50;99.90;;;;;;5069297;28;20253;-71
2021/07/20 06:02:21;;;;;;;4.20;3.23;;;17.60;99.90;;;;;;5070043;28;20253;-72
2021/07/20 06:04:50;;;;;;;3.07;2.87;;;17.60;99.90;;;;;;5069535;28;20279;-72
2021/07/20 06:07:16;;;;;;;3.60;3.23;;;17.60;99.90;;;;;;5069773;28;20258;-71
2021/07/20 06:09:47;;;;;;;6.03;3.53;;;17.70;99.90;;;;;;5069346;28;20231;-71
2021/07/20 06:12:15;;;;;;;5.03;3.57;;;17.70;99.90;;;;;;5069658;28;20242;-72
2021/07/20 06:14:45;;;;;;;3.83;3.20;;;17.60;99.90;;;;;;5069394;28;20756;-72
2021/07/20 06:17:11;;;;;;;5.83;3.30;;;17.70;99.90;;;;;;5069573;28;20203;-71
2021/07/20 06:19:39;;;;;;;5.47;3.50;;;17.80;99.90;;;;;;5069466;28;20257;-71
2021/07/20 06:22:09;;;;;;;3.43;3.10;;;17.60;99.90;;;;;;5069006;28;20228;-71
2021/07/20 06:24:41;;;;;;;3.70;3.40;;;17.70;99.90;;;;;;5069322;28;20251;-71
2021/07/20 06:27:08;;;;;;;6.70;3.73;;;17.70;99.90;;;;;;5069256;28;20332;-71
2021/07/20 06:29:36;;;;;;;4.53;3.13;;;17.60;99.90;;;;;;5069441;28;20211;-71
2021/07/20 06:32:05;;;;;;;3.77;3.47;;;17.60;99.90;;;;;;5069363;28;20631;-71
2021/07/20 06:34:35;;;;;;;7.30;3.40;;;17.60;99.90;;;;;;5069404;28;20264;-70
2021/07/20 06:37:03;;;;;;;6.60;3.30;;;17.70;99.90;;;;;;5068934;28;20204;-71
2021/07/20 06:39:30;;;;;;;3.83;2.97;;;17.80;99.90;;;;;;5069113;28;20210;-71
2021/07/20 06:41:57;;;;;;;4.27;3.27;;;17.80;99.90;;;;;;5068930;28;20231;-71
2021/07/20 06:44:26;;;;;;;6.90;2.90;;;17.70;99.90;;;;;;5068677;28;20642;-72
2021/07/20 06:46:54;;;;;;;4.23;2.80;;;17.80;99.90;;;;;;5068634;28;20254;-71
2021/07/20 06:49:22;;;;;;;6.90;3.27;;;17.90;99.90;;;;;;5069074;28;20628;-72
2021/07/20 06:51:50;;;;;;;4.30;3.10;;;17.80;99.90;;;;;;5068426;28;20672;-71
2021/07/20 06:54:17;;;;;;;7.10;3.23;;;17.80;99.90;;;;;;5069003;28;20247;-71
2021/07/20 06:56:52;;;;;;;3.40;3.00;;;17.80;99.90;;;;;;5069020;28;20235;-71
2021/07/20 06:59:20;;;;;;;3.00;2.70;;;17.70;99.90;;;;;;5069037;28;20241;-71
2021/07/20 07:01:47;;;;;;;3.60;3.30;;;17.80;99.90;;;;;;5068824;28;20208;-71
2021/07/20 07:04:19;;;;;;;4.43;2.93;;;17.70;99.90;;;;;;5068780;28;20271;-71
2021/07/20 07:06:50;;;;;;;3.43;3.07;;;17.80;99.90;;;;;;5068469;28;20211;-71
2021/07/20 07:09:18;;;;;;;3.40;2.70;;;17.90;99.90;;;;;;5068513;28;20245;-71
2021/07/20 07:11:46;;;;;;;4.83;3.33;;;17.90;99.90;;;;;;5067853;28;20210;-71
2021/07/20 07:14:13;;;;;;;3.57;2.93;;;18.00;99.90;;;;;;5068700;28;20246;-71
2021/07/20 07:16:45;;;;;;;3.07;2.60;;;18.20;99.90;;;;;;5068439;28;20207;-71
2021/07/20 07:19:14;;;;;;;3.70;2.93;;;18.30;99.90;;;;;;5068547;28;20223;-71
2021/07/20 07:21:43;;;;;;;3.07;2.70;;;18.40;99.90;;;;;;5068263;28;20261;-71
2021/07/20 07:24:12;;;;;;;8.57;3.07;;;18.40;99.90;;;;;;5067925;28;20618;-72
2021/07/20 07:26:40;;;;;;;4.30;2.50;;;18.50;99.90;;;;;;5068506;28;20234;-70
2021/07/20 07:29:09;;;;;;;3.60;2.87;;;18.60;99.90;;;;;;5068392;28;20231;-70
2021/07/20 07:31:36;;;;;;;3.43;2.67;;;18.60;99.90;;;;;;5068360;28;20207;-72
2021/07/20 07:34:02;;;;;;;3.27;2.87;;;18.60;99.90;;;;;;5068305;28;20617;-71
2021/07/20 07:36:30;;;;;;;2.80;2.60;;;18.60;99.90;;;;;;5068252;28;20204;-72
2021/07/20 07:39:01;;;;;;;2.80;2.60;;;18.60;99.90;;;;;;5068099;28;20305;-71
2021/07/20 07:41:33;;;;;;;4.20;2.80;;;18.70;99.90;;;;;;5068499;28;20200;-72
2021/07/20 07:44:01;;;;;;;4.83;2.80;;;18.60;99.90;;;;;;5067911;28;20633;-71
2021/07/20 07:46:32;;;;;;;4.60;2.47;;;18.70;99.90;;;;;;5068125;28;20235;-71
2021/07/20 07:48:59;;;;;;;4.73;3.07;;;18.70;99.90;;;;;;5068064;28;20191;-71
2021/07/20 07:51:26;;;;;;;6.00;2.90;;;18.70;99.90;;;;;;5068279;28;20207;-71
2021/07/20 07:53:58;;;;;;;6.53;2.93;;;18.70;99.90;;;;;;5068175;28;20626;-71
2021/07/20 07:56:25;;;;;;;42.47;5.43;;;18.70;99.90;;;;;;5067993;28;20693;-71
2021/07/20 07:58:54;;;;;;;7.63;2.87;;;18.70;99.90;;;;;;5067892;28;20253;-71
2021/07/20 08:01:25;;;;;;;23.17;3.90;;;18.70;99.90;;;;;;5068274;28;20238;-71
2021/07/20 08:03:54;;;;;;;3.20;2.77;;;18.70;98.40;;;;;;5067927;28;20207;-71
2021/07/20 08:06:21;;;;;;;3.17;2.63;;;18.80;99.40;;;;;;5067932;28;20292;-71
2021/07/20 08:08:52;;;;;;;2.63;2.43;;;18.90;99.70;;;;;;5067863;28;20289;-71
2021/07/20 08:11:19;;;;;;;2.90;2.60;;;19.00;99.80;;;;;;5067928;28;20659;-71
2021/07/20 08:13:46;;;;;;;3.63;2.83;;;19.10;99.90;;;;;;5068036;28;20261;-71
2021/07/20 08:16:15;;;;;;;3.27;2.80;;;19.30;99.70;;;;;;5067902;28;20211;-71
2021/07/20 08:18:44;;;;;;;2.63;2.43;;;19.30;99.10;;;;;;5068230;28;20207;-71
2021/07/20 08:21:11;;;;;;;6.47;2.87;;;19.40;99.10;;;;;;5067729;28;20255;-71
2021/07/20 08:23:38;;;;;;;2.77;2.57;;;19.50;99.20;;;;;;5070139;28;20207;-71
2021/07/20 08:26:07;;;;;;;2.73;2.53;;;19.50;98.80;;;;;;5071664;28;20227;-71
2021/07/20 08:28:42;;;;;;;37.90;4.17;;;19.40;98.00;;;;;;5071598;28;20215;-71
2021/07/20 08:31:09;;;;;;;3.30;3.00;;;19.40;97.60;;;;;;5071601;28;20196;-71
2021/07/20 08:33:38;;;;;;;72.47;7.27;;;19.40;96.60;;;;;;5071389;28;20203;-71
2021/07/20 08:36:08;;;;;;;76.73;12.23;;;19.30;97.40;;;;;;5071451;28;20211;-71
2021/07/20 08:38:36;;;;;;;61.63;8.53;;;19.50;98.10;;;;;;5071577;28;20211;-72
2021/07/20 08:41:19;;;;;;;4.10;3.30;;;19.50;98.80;;;;;;5071166;28;20257;-72
2021/07/20 08:44:06;;;;;;;6.30;3.17;;;19.40;99.90;;;;;;5071457;28;20215;-72
2021/07/20 08:46:51;;;;;;;6.80;3.23;;;19.40;99.90;;;;;;5071209;28;20283;-72
2021/07/20 08:49:29;;;;;;;5.53;3.23;;;19.10;99.90;;;;;;5071289;28;20246;-72
2021/07/20 08:52:01;;;;;;;6.27;2.97;;;18.90;99.90;;;;;;5070993;28;20286;-72
2021/07/20 08:54:34;;;;;;;5.10;3.00;;;18.80;99.90;;;;;;5071114;28;20226;-72
2021/07/20 08:57:04;;;;;;;6.97;3.50;;;18.80;99.90;;;;;;5070967;28;20196;-72
2021/07/20 08:59:40;;;;;;;4.20;2.93;;;18.90;99.90;;;;;;5071356;28;20203;-72
2021/07/20 09:02:28;;;;;;;4.53;2.77;;;19.10;99.90;;;;;;5070996;28;20195;-72
2021/07/20 09:05:02;;;;;;;4.97;2.80;;;19.10;99.90;;;;;;5071045;28;20227;-72
2021/07/20 09:07:35;;;;;;;2.63;2.43;;;19.20;99.90;;;;;;5071326;28;20284;-72
2021/07/20 09:10:05;;;;;;;3.20;2.70;;;19.30;99.60;;;;;;5070569;28;20271;-72
2021/07/20 09:12:37;;;;;;;2.60;2.27;;;19.40;99.90;;;;;;5070711;28;20231;-72
2021/07/20 09:15:08;;;;;;;2.70;2.50;;;19.50;99.20;;;;;;5070933;28;20199;-71
2021/07/20 09:17:42;;;;;;;3.27;2.83;;;19.50;98.70;;;;;;5070450;28;20191;-71
2021/07/20 09:20:13;;;;;;;3.00;2.70;;;19.60;98.10;;;;;;5070686;28;20208;-71
2021/07/20 09:22:46;;;;;;;2.87;2.50;;;19.60;97.70;;;;;;5070694;28;20219;-71
2021/07/20 09:25:22;;;;;;;3.37;2.57;;;19.80;98.40;;;;;;5070472;28;20262;-71
2021/07/20 09:27:54;;;;;;;5.30;2.40;;;19.80;96.90;;;;;;5070841;28;20707;-71
2021/07/20 09:30:25;;;;;;;5.27;2.63;;;19.80;97.00;;;;;;5070408;28;20262;-71
2021/07/20 09:33:02;;;;;;;4.03;2.50;;;20.00;97.90;;;;;;5070656;28;20253;-71
2021/07/20 09:35:36;;;;;;;3.43;2.50;;;20.00;98.80;;;;;;5069583;28;20203;-72
2021/07/20 09:38:11;;;;;;;3.63;2.40;;;20.20;99.10;;;;;;5070420;28;20192;-72
2021/07/20 09:40:46;;;;;;;2.90;2.60;;;20.10;99.10;;;;;;5070480;28;20225;-72
2021/07/20 09:43:25;;;;;;;4.13;2.77;;;20.00;99.10;;;;;;5070213;28;20202;-72
2021/07/20 09:45:59;;;;;;;4.43;2.80;;;19.90;99.30;;;;;;5070065;28;20259;-72
2021/07/20 09:48:33;;;;;;;3.13;2.50;;;19.90;99.30;;;;;;5070269;28;20233;-72
2021/07/20 09:51:17;;;;;;;2.50;2.30;;;20.00;99.10;;;;;;5070142;28;20196;-72
2021/07/20 09:54:00;;;;;;;4.50;2.47;;;20.00;98.70;;;;;;5069975;28;20632;-72
2021/07/20 09:56:44;;;;;;;3.30;2.30;;;20.10;98.60;;;;;;5069571;28;20538;-72
2021/07/20 09:59:24;;;;;;;7.57;6.30;;;20.10;98.80;;;;;;5069815;28;20187;-72
2021/07/20 10:01:54;;;;;;;2.53;2.30;;;20.10;99.00;;;;;;5070007;28;20191;-72
2021/07/20 10:04:28;;;;;;;6.27;2.40;;;20.40;98.50;;;;;;5069795;28;20204;-72
2021/07/20 10:07:01;;;;;;;4.23;2.03;;;20.40;97.80;;;;;;5069362;28;20790;-72
2021/07/20 10:09:33;;;;;;;4.23;2.17;;;20.50;98.40;;;;;;5069413;28;20271;-72
2021/07/20 10:12:02;;;;;;;6.03;2.60;;;20.40;98.50;;;;;;5069959;28;20207;-72
2021/07/20 10:14:41;;;;;;;5.70;2.43;;;20.30;99.40;;;;;;5069778;28;20208;-72
2021/07/20 10:17:14;;;;;;;8.23;2.90;;;20.10;99.70;;;;;;5069566;28;20582;-72
2021/07/20 10:19:46;;;;;;;2.97;2.67;;;19.80;99.90;;;;;;5069651;28;20224;-72
2021/07/20 10:22:16;;;;;;;6.87;2.70;;;19.70;99.90;;;;;;5069153;28;20223;-72
2021/07/20 10:24:47;;;;;;;5.00;2.60;;;19.60;99.90;;;;;;5069851;28;20281;-72
2021/07/20 10:27:18;;;;;;;2.50;2.30;;;19.70;99.90;;;;;;5068944;28;20621;-72
2021/07/20 10:29:52;;;;;;;3.83;2.40;;;19.70;99.90;;;;;;5069377;28;20211;-72
2021/07/20 10:32:23;;;;;;;3.00;2.23;;;19.70;99.90;;;;;;5069079;28;20310;-72
2021/07/20 10:34:56;;;;;;;6.67;2.60;;;19.70;99.90;;;;;;5068689;28;20192;-73
2021/07/20 10:37:29;;;;;;;3.17;2.27;;;19.60;99.90;;;;;;5068333;28;20698;-72
2021/07/20 10:40:00;;;;;;;6.27;2.80;;;19.70;99.90;;;;;;5069291;28;20192;-72
2021/07/20 10:42:35;;;;;;;4.53;2.37;;;19.70;99.90;;;;;;5069025;28;20202;-72
2021/07/20 10:45:05;;;;;;;5.73;2.83;;;19.70;99.90;;;;;;5069257;28;21071;-72
2021/07/20 10:47:37;;;;;;;5.13;2.60;;;19.80;99.90;;;;;;5068939;28;20223;-72
2021/07/20 10:50:07;;;;;;;4.23;2.40;;;19.80;99.90;;;;;;5069213;28;20532;-72
2021/07/20 10:53:09;;;;;;;4.63;2.77;;;19.90;99.90;;;;;;5068976;28;20207;-72
2021/07/20 10:55:43;;;;;;;2.53;2.33;;;19.90;99.90;;;;;;5068828;28;20594;-72
2021/07/20 10:58:23;;;;;;;6.33;2.87;;;20.00;99.90;;;;;;5068816;28;20553;-72
2021/07/20 11:00:57;;;;;;;3.47;2.30;;;20.00;99.90;;;;;;5068902;28;20199;-72
2021/07/20 11:03:35;;;;;;;4.43;2.33;;;20.00;99.90;;;;;;5068576;28;20196;-72
2021/07/20 11:06:03;;;;;;;7.13;2.37;;;20.00;99.90;;;;;;5068790;28;20308;-72
2021/07/20 11:08:33;;;;;;;5.37;2.50;;;20.00;99.90;;;;;;5068645;28;20239;-72
2021/07/20 11:11:01;;;;;;;3.70;2.33;;;19.80;99.90;;;;;;5068664;28;20253;-72
2021/07/20 11:13:33;;;;;;;4.43;2.60;;;19.70;99.90;;;;;;5068515;28;20517;-72
2021/07/20 11:16:05;;;;;;;2.87;2.53;;;19.60;99.90;;;;;;5068695;28;20203;-72
2021/07/20 11:18:34;;;;;;;5.50;2.60;;;19.50;99.90;;;;;;5068425;28;20207;-72
2021/07/20 11:21:03;;;;;;;7.20;3.10;;;19.50;99.90;;;;;;5068593;28;20278;-72
2021/07/20 11:23:34;;;;;;;2.90;2.70;;;19.50;99.90;;;;;;5068928;28;20234;-72
2021/07/20 11:26:03;;;;;;;5.07;2.70;;;19.40;99.90;;;;;;5068224;28;20230;-72
2021/07/20 11:28:31;;;;;;;2.87;2.60;;;19.40;99.90;;;;;;5068451;28;20211;-72
2021/07/20 11:31:01;;;;;;;3.90;3.10;;;19.40;99.90;;;;;;5068498;28;20289;-72
2021/07/20 11:33:33;;;;;;;5.27;2.43;;;19.40;99.90;;;;;;5067997;28;20653;-72
2021/07/20 11:36:01;;;;;;;4.90;2.77;;;19.50;99.90;;;;;;5068138;28;20762;-72
2021/07/20 11:38:33;;;;;;;4.00;3.00;;;19.60;99.90;;;;;;5068370;28;20253;-74
2021/07/20 11:41:06;;;;;;;3.07;2.63;;;19.70;99.90;;;;;;5068512;28;20203;-72
2021/07/20 11:43:38;;;;;;;4.50;2.90;;;19.80;99.90;;;;;;5068350;28;20195;-72
2021/07/20 11:46:07;;;;;;;4.50;2.83;;;20.10;99.90;;;;;;5067895;28;20884;-72
2021/07/20 11:48:43;;;;;;;4.00;2.83;;;20.20;99.90;;;;;;5067975;28;20677;-72
2021/07/20 11:51:14;;;;;;;3.40;2.80;;;20.20;99.90;;;;;;5068377;28;20617;-72
2021/07/20 11:53:55;;;;;;;3.07;2.60;;;20.30;99.90;;;;;;5068258;28;20249;-72
2021/07/20 11:56:26;;;;;;;3.03;2.37;;;20.40;99.90;;;;;;5068055;28;20195;-72
2021/07/20 11:59:25;;;;;;;2.97;2.47;;;20.50;99.90;;;;;;5071090;28;20245;-72
2021/07/20 12:02:43;;;;;;;2.83;2.17;;;20.40;99.90;;;;;;5071952;28;20192;-72
2021/07/20 12:05:27;;;;;;;4.90;4.40;;;20.40;99.90;;;;;;5071863;28;20199;-72
2021/07/20 12:07:55;;;;;;;2.80;2.60;;;20.30;99.90;;;;;;5071798;28;20638;-72
2021/07/20 12:10:39;;;;;;;2.87;2.23;;;20.20;99.90;;;;;;5071582;28;20238;-72
2021/07/20 12:13:08;;;;;;;4.43;2.40;;;20.10;99.90;;;;;;5071972;28;20197;-72
2021/07/20 12:15:37;;;;;;;8.03;2.30;;;20.20;99.90;;;;;;5071961;28;20253;-72
2021/07/20 12:18:05;;;;;;;3.87;2.80;;;20.20;99.90;;;;;;5071890;28;20207;-72
2021/07/20 12:20:32;;;;;;;2.77;2.43;;;20.10;99.90;;;;;;5071914;28;20207;-72
2021/07/20 12:23:00;;;;;;;3.70;2.17;;;19.90;99.90;;;;;;5071853;28;20207;-72
2021/07/20 12:25:28;;;;;;;4.47;2.70;;;19.90;99.90;;;;;;5071606;28;20203;-72
2021/07/20 12:27:59;;;;;;;3.03;2.40;;;20.00;99.90;;;;;;5071448;28;20258;-73
2021/07/20 12:30:28;;;;;;;3.73;2.80;;;20.20;99.90;;;;;;5071599;28;20273;-72
2021/07/20 12:32:56;;;;;;;4.20;2.60;;;20.30;99.90;;;;;;5071679;28;20210;-72
2021/07/20 12:35:24;;;;;;;3.23;2.97;;;20.40;99.90;;;;;;5071329;28;20624;-73
2021/07/20 12:38:11;;;;;;;4.37;2.80;;;20.60;99.90;;;;;;5071210;28;20211;-72
2021/07/20 12:40:39;;;;;;;3.80;3.00;;;20.40;99.90;;;;;;5071269;28;20199;-72
2021/07/20 12:43:13;;;;;;;3.13;2.73;;;20.40;99.90;;;;;;5071564;28;20219;-72
2021/07/20 12:45:41;;;;;;;4.23;2.93;;;20.60;99.90;;;;;;5071059;28;20728;-72
2021/07/20 12:48:22;;;;;;;4.70;3.30;;;20.50;99.90;;;;;;5070958;28;20203;-73
2021/07/20 12:50:49;;;;;;;4.37;3.23;;;20.50;99.90;;;;;;5071279;28;20528;-72
2021/07/20 12:53:15;;;;;;;3.13;2.93;;;20.60;99.90;;;;;;5071020;28;20273;-72
2021/07/20 12:55:45;;;;;;;3.80;2.90;;;20.80;99.90;;;;;;5071144;28;20207;-72
2021/07/20 12:58:16;;;;;;;3.73;3.17;;;21.00;99.90;;;;;;5070784;28;20542;-72
2021/07/20 13:00:44;;;;;;;5.33;3.03;;;21.30;99.90;;;;;;5071168;28;20188;-73
2021/07/20 13:03:11;;;;;;;4.23;3.07;;;21.40;99.90;;;;;;5070784;28;20770;-72
2021/07/20 13:05:42;;;;;;;6.07;3.43;;;21.50;99.90;;;;;;5070729;28;20227;-73